sensor_id;sensor_type;location;lat;lon;timestamp;temperature;humidity
20839;DHT22;10580;51.092;6.828;2023-06-26T00:01:23;23.30;99.90
20839;DHT22;10580;51.092;6.828;2023-06-26T00:03:49;23.30;99.90
20839;DHT22;10580;51.092;6.828;2023-06-26T00:06:14;23.20;99.90
20839;DHT22;10580;51.092;6.828;2023-06-26T00:08:40;23.20;99.90
20839;DHT22;10580;51.092;6.828;2023-06-26T00:11:06;23.20;99.90
20839;DHT22;10580;51.092;6.828;2023-06-26T00:13:31;23.20;99.90
20839;DHT22;10580;51.092;6.828;2023-06-26T00:15:57;23.10;99.90
20839;DHT22;10580;51.092;6.828;2023-06-26T00:18:23;23.10;99.90
20839;DHT22;10580;51.092;6.828;2023-06-26T00:20:49;23.00;99.90
20839;DHT22;10580;51.092;6.828;2023-06-26T00:23:18;22.90;99.90
20839;DHT22;10580;51.092;6.828;2023-06-26T00:25:44;22.80;99.90
20839;DHT22;10580;51.092;6.828;2023-06-26T00:28:10;22.80;99.90
20839;DHT22;10580;51.092;6.828;2023-06-26T00:30:35;22.70;99.90
20839;DHT22;10580;51.092;6.828;2023-06-26T00:33:01;22.60;99.90
20839;DHT22;10580;51.092;6.828;2023-06-26T00:35:27;22.50;99.90
20839;DHT22;10580;51.092;6.828;2023-06-26T00:37:53;22.40;99.90
20839;DHT22;10580;51.092;6.828;2023-06-26T00:40:18;22.40;99.90
20839;DHT22;10580;51.092;6.828;2023-06-26T00:42:44;22.40;99.90
20839;DHT22;10580;51.092;6.828;2023-06-26T00:45:10;22.40;99.90
20839;DHT22;10580;51.092;6.828;2023-06-26T00:47:36;22.40;99.90
20839;DHT22;10580;51.092;6.828;2023-06-26T00:50:02;22.30;99.90
20839;DHT22;10580;51.092;6.828;2023-06-26T00:52:29;22.30;99.90
20839;DHT22;10580;51.092;6.828;2023-06-26T00:54:55;22.20;99.90
20839;DHT22;10580;51.092;6.828;2023-06-26T00:57:21;22.20;99.90
20839;DHT22;10580;51.092;6.828;2023-06-26T00:59:48;22.10;99.90
20839;DHT22;10580;51.092;6.828;2023-06-26T01:02:13;22.10;99.90
20839;DHT22;10580;51.092;6.828;2023-06-26T01:04:43;22.00;99.90
20839;DHT22;10580;51.092;6.828;2023-06-26T01:07:13;22.00;99.90
20839;DHT22;10580;51.092;6.828;2023-06-26T01:09:40;21.90;99.90
20839;DHT22;10580;51.092;6.828;2023-06-26T01:12:06;21.90;99.90
20839;DHT22;10580;51.092;6.828;2023-06-26T01:14:34;21.80;99.90
20839;DHT22;10580;51.092;6.828;2023-06-26T01:17:01;21.80;99.90
20839;DHT22;10580;51.092;6.828;2023-06-26T01:19:29;21.70;99.90
20839;DHT22;10580;51.092;6.828;2023-06-26T01:22:07;21.70;99.90
20839;DHT22;10580;51.092;6.828;2023-06-26T01:24:45;21.70;99.90
20839;DHT22;10580;51.092;6.828;2023-06-26T01:27:14;21.70;99.90
20839;DHT22;10580;51.092;6.828;2023-06-26T01:29:40;21.70;99.90
20839;DHT22;10580;51.092;6.828;2023-06-26T01:32:07;21.70;99.90
20839;DHT22;10580;51.092;6.828;2023-06-26T01:34:33;21.60;99.90
20839;DHT22;10580;51.092;6.828;2023-06-26T01:36:59;21.60;99.90
20839;DHT22;10580;51.092;6.828;2023-06-26T01:39:24;21.60;99.90
20839;DHT22;10580;51.092;6.828;2023-06-26T01:41:50;21.60;99.90
20839;DHT22;10580;51.092;6.828;2023-06-26T01:44:44;21.50;99.90
20839;DHT22;10580;51.092;6.828;2023-06-26T01:47:14;21.50;99.90
20839;DHT22;10580;51.092;6.828;2023-06-26T01:49:56;21.40;99.90
20839;DHT22;10580;51.092;6.828;2023-06-26T01:52:40;21.40;99.90
20839;DHT22;10580;51.092;6.828;2023-06-26T02:10:58;21.10;99.90
20839;DHT22;10580;51.092;6.828;2023-06-26T02:13:23;21.10;99.90
20839;DHT22;10580;51.092;6.828;2023-06-26T02:15:49;21.20;99.90
20839;DHT22;10580;51.092;6.828;2023-06-26T02:18:15;21.10;99.90
20839;DHT22;10580;51.092;6.828;2023-06-26T02:20:41;21.10;99.90
20839;DHT22;10580;51.092;6.828;2023-06-26T02:23:06;21.10;99.90
20839;DHT22;10580;51.092;6.828;2023-06-26T02:25:32;21.20;99.90
20839;DHT22;10580;51.092;6.828;2023-06-26T02:27:58;21.10;99.90
20839;DHT22;10580;51.092;6.828;2023-06-26T02:30:23;21.10;99.90
20839;DHT22;10580;51.092;6.828;2023-06-26T02:32:49;21.10;99.90
20839;DHT22;10580;51.092;6.828;2023-06-26T02:35:14;21.10;99.90
20839;DHT22;10580;51.092;6.828;2023-06-26T02:37:40;21.10;99.90
20839;DHT22;10580;51.092;6.828;2023-06-26T02:40:06;21.10;99.90
20839;DHT22;10580;51.092;6.828;2023-06-26T02:42:35;21.00;99.90
20839;DHT22;10580;51.092;6.828;2023-06-26T02:45:00;21.00;99.90
20839;DHT22;10580;51.092;6.828;2023-06-26T02:47:26;21.00;99.90
20839;DHT22;10580;51.092;6.828;2023-06-26T02:49:52;21.00;99.90
20839;DHT22;10580;51.092;6.828;2023-06-26T02:52:18;21.00;99.90
20839;DHT22;10580;51.092;6.828;2023-06-26T02:54:44;21.00;99.90
20839;DHT22;10580;51.092;6.828;2023-06-26T02:57:10;21.00;99.90
20839;DHT22;10580;51.092;6.828;2023-06-26T02:59:36;20.90;99.90
20839;DHT22;10580;51.092;6.828;2023-06-26T03:02:01;20.90;99.90
20839;DHT22;10580;51.092;6.828;2023-06-26T03:04:27;20.90;99.90
20839;DHT22;10580;51.092;6.828;2023-06-26T03:06:53;20.80;99.90
20839;DHT22;10580;51.092;6.828;2023-06-26T03:09:18;20.70;99.90
20839;DHT22;10580;51.092;6.828;2023-06-26T03:11:44;20.70;99.90
20839;DHT22;10580;51.092;6.828;2023-06-26T03:14:09;20.70;99.90
20839;DHT22;10580;51.092;6.828;2023-06-26T03:16:35;20.70;99.90
20839;DHT22;10580;51.092;6.828;2023-06-26T03:19:01;20.70;99.90
20839;DHT22;10580;51.092;6.828;2023-06-26T03:21:26;20.70;99.90
20839;DHT22;10580;51.092;6.828;2023-06-26T03:23:52;20.70;99.90
20839;DHT22;10580;51.092;6.828;2023-06-26T03:26:18;20.70;99.90
20839;DHT22;10580;51.092;6.828;2023-06-26T03:28:43;20.70;99.90
20839;DHT22;10580;51.092;6.828;2023-06-26T03:31:09;20.70;99.90
20839;DHT22;10580;51.092;6.828;2023-06-26T03:33:34;20.70;99.90
20839;DHT22;10580;51.092;6.828;2023-06-26T03:36:00;20.70;99.90
20839;DHT22;10580;51.092;6.828;2023-06-26T03:38:26;20.70;99.90
20839;DHT22;10580;51.092;6.828;2023-06-26T03:40:51;20.70;99.90
20839;DHT22;10580;51.092;6.828;2023-06-26T03:43:17;20.60;99.90
20839;DHT22;10580;51.092;6.828;2023-06-26T03:45:43;20.70;99.90
20839;DHT22;10580;51.092;6.828;2023-06-26T03:48:09;20.60;99.90
20839;DHT22;10580;51.092;6.828;2023-06-26T03:50:35;20.60;99.90
20839;DHT22;10580;51.092;6.828;2023-06-26T03:53:00;20.70;99.90
20839;DHT22;10580;51.092;6.828;2023-06-26T03:55:26;20.80;99.90
20839;DHT22;10580;51.092;6.828;2023-06-26T03:57:52;20.80;99.90
20839;DHT22;10580;51.092;6.828;2023-06-26T04:00:17;20.90;99.90
20839;DHT22;10580;51.092;6.828;2023-06-26T04:02:43;20.90;99.90
20839;DHT22;10580;51.092;6.828;2023-06-26T04:05:10;21.00;99.90
20839;DHT22;10580;51.092;6.828;2023-06-26T04:07:37;21.00;99.90
20839;DHT22;10580;51.092;6.828;2023-06-26T04:10:03;21.10;99.90
20839;DHT22;10580;51.092;6.828;2023-06-26T04:12:30;21.10;99.90
20839;DHT22;10580;51.092;6.828;2023-06-26T04:14:56;21.20;99.90
20839;DHT22;10580;51.092;6.828;2023-06-26T04:17:22;21.20;99.90
20839;DHT22;10580;51.092;6.828;2023-06-26T04:19:48;21.30;99.90
20839;DHT22;10580;51.092;6.828;2023-06-26T04:22:14;21.30;99.90
20839;DHT22;10580;51.092;6.828;2023-06-26T04:24:40;21.40;99.90
20839;DHT22;10580;51.092;6.828;2023-06-26T04:27:06;21.50;99.90
20839;DHT22;10580;51.092;6.828;2023-06-26T04:29:31;21.50;99.90
20839;DHT22;10580;51.092;6.828;2023-06-26T04:31:57;21.60;99.90
20839;DHT22;10580;51.092;6.828;2023-06-26T04:34:27;21.60;99.90
20839;DHT22;10580;51.092;6.828;2023-06-26T04:36:54;21.70;99.90
20839;DHT22;10580;51.092;6.828;2023-06-26T04:39:20;21.80;99.90
20839;DHT22;10580;51.092;6.828;2023-06-26T04:41:46;21.80;99.90
20839;DHT22;10580;51.092;6.828;2023-06-26T04:44:12;21.90;99.90
20839;DHT22;10580;51.092;6.828;2023-06-26T04:46:38;21.90;99.90
20839;DHT22;10580;51.092;6.828;2023-06-26T04:49:10;21.90;99.90
20839;DHT22;10580;51.092;6.828;2023-06-26T04:51:36;21.90;99.90
20839;DHT22;10580;51.092;6.828;2023-06-26T04:54:09;22.00;99.90
20839;DHT22;10580;51.092;6.828;2023-06-26T04:56:35;22.10;99.90
20839;DHT22;10580;51.092;6.828;2023-06-26T04:59:01;22.20;99.90
20839;DHT22;10580;51.092;6.828;2023-06-26T05:01:27;22.30;99.90
20839;DHT22;10580;51.092;6.828;2023-06-26T05:03:55;22.40;99.90
20839;DHT22;10580;51.092;6.828;2023-06-26T05:06:21;22.50;99.90
20839;DHT22;10580;51.092;6.828;2023-06-26T05:08:47;22.60;1.00
20839;DHT22;10580;51.092;6.828;2023-06-26T05:11:13;22.90;1.00
20839;DHT22;10580;51.092;6.828;2023-06-26T05:13:38;22.90;99.90
20839;DHT22;10580;51.092;6.828;2023-06-26T05:16:04;22.80;1.00
20839;DHT22;10580;51.092;6.828;2023-06-26T05:18:29;22.70;1.00
20839;DHT22;10580;51.092;6.828;2023-06-26T05:20:55;22.80;1.00
20839;DHT22;10580;51.092;6.828;2023-06-26T05:23:22;22.30;99.90
20839;DHT22;10580;51.092;6.828;2023-06-26T05:25:50;22.40;1.00
20839;DHT22;10580;51.092;6.828;2023-06-26T05:28:15;22.40;1.00
20839;DHT22;10580;51.092;6.828;2023-06-26T05:30:41;22.40;1.00
20839;DHT22;10580;51.092;6.828;2023-06-26T05:33:10;22.20;99.90
20839;DHT22;10580;51.092;6.828;2023-06-26T05:35:36;22.30;1.00
20839;DHT22;10580;51.092;6.828;2023-06-26T05:38:02;22.30;1.00
20839;DHT22;10580;51.092;6.828;2023-06-26T05:40:30;22.40;1.00
20839;DHT22;10580;51.092;6.828;2023-06-26T05:42:56;22.40;99.90
20839;DHT22;10580;51.092;6.828;2023-06-26T05:45:22;22.50;99.90
20839;DHT22;10580;51.092;6.828;2023-06-26T05:47:48;22.50;99.90
20839;DHT22;10580;51.092;6.828;2023-06-26T05:50:16;22.40;99.90
20839;DHT22;10580;51.092;6.828;2023-06-26T05:52:42;22.30;99.90
20839;DHT22;10580;51.092;6.828;2023-06-26T05:55:09;22.20;1.00
20839;DHT22;10580;51.092;6.828;2023-06-26T05:57:37;22.10;99.90
20839;DHT22;10580;51.092;6.828;2023-06-26T06:00:03;22.30;99.90
20839;DHT22;10580;51.092;6.828;2023-06-26T06:02:31;22.90;99.90
20839;DHT22;10580;51.092;6.828;2023-06-26T06:04:57;23.50;1.00
20839;DHT22;10580;51.092;6.828;2023-06-26T06:07:23;23.80;1.00
20839;DHT22;10580;51.092;6.828;2023-06-26T06:09:48;24.00;99.90
20839;DHT22;10580;51.092;6.828;2023-06-26T06:12:14;23.80;99.90
20839;DHT22;10580;51.092;6.828;2023-06-26T06:14:40;23.50;99.90
20839;DHT22;10580;51.092;6.828;2023-06-26T06:17:08;23.00;99.90
20839;DHT22;10580;51.092;6.828;2023-06-26T06:19:34;23.10;99.90
20839;DHT22;10580;51.092;6.828;2023-06-26T06:22:00;23.60;1.00
20839;DHT22;10580;51.092;6.828;2023-06-26T06:24:26;23.90;99.90
20839;DHT22;10580;51.092;6.828;2023-06-26T06:26:51;24.10;99.90
20839;DHT22;10580;51.092;6.828;2023-06-26T06:29:17;23.60;99.90
20839;DHT22;10580;51.092;6.828;2023-06-26T06:31:45;23.30;99.90
20839;DHT22;10580;51.092;6.828;2023-06-26T06:34:12;23.10;99.90
20839;DHT22;10580;51.092;6.828;2023-06-26T06:36:38;22.50;99.90
20839;DHT22;10580;51.092;6.828;2023-06-26T06:39:04;22.30;99.90
20839;DHT22;10580;51.092;6.828;2023-06-26T06:41:30;22.20;99.90
20839;DHT22;10580;51.092;6.828;2023-06-26T06:43:55;22.50;99.90
20839;DHT22;10580;51.092;6.828;2023-06-26T06:46:21;22.70;99.90
20839;DHT22;10580;51.092;6.828;2023-06-26T06:48:47;22.80;99.90
20839;DHT22;10580;51.092;6.828;2023-06-26T06:51:13;23.30;1.00
20839;DHT22;10580;51.092;6.828;2023-06-26T06:53:39;23.80;1.00
20839;DHT22;10580;51.092;6.828;2023-06-26T06:56:04;24.40;1.00
20839;DHT22;10580;51.092;6.828;2023-06-26T06:58:30;24.70;1.00
20839;DHT22;10580;51.092;6.828;2023-06-26T07:00:59;25.00;1.00
20839;DHT22;10580;51.092;6.828;2023-06-26T07:03:25;25.10;1.00
20839;DHT22;10580;51.092;6.828;2023-06-26T07:05:50;25.10;99.90
20839;DHT22;10580;51.092;6.828;2023-06-26T07:08:16;25.10;1.00
20839;DHT22;10580;51.092;6.828;2023-06-26T07:10:42;25.00;99.90
20839;DHT22;10580;51.092;6.828;2023-06-26T07:13:08;24.90;99.90
20839;DHT22;10580;51.092;6.828;2023-06-26T07:15:34;24.80;99.90
20839;DHT22;10580;51.092;6.828;2023-06-26T07:17:59;24.50;1.00
20839;DHT22;10580;51.092;6.828;2023-06-26T07:20:25;24.00;99.90
20839;DHT22;10580;51.092;6.828;2023-06-26T07:22:52;23.60;99.90
20839;DHT22;10580;51.092;6.828;2023-06-26T07:25:18;23.80;99.90
20839;DHT22;10580;51.092;6.828;2023-06-26T07:27:43;24.80;1.00
20839;DHT22;10580;51.092;6.828;2023-06-26T07:30:10;25.30;1.00
20839;DHT22;10580;51.092;6.828;2023-06-26T07:32:37;25.30;99.90
20839;DHT22;10580;51.092;6.828;2023-06-26T07:35:03;25.80;1.00
20839;DHT22;10580;51.092;6.828;2023-06-26T07:37:29;26.60;1.00
20839;DHT22;10580;51.092;6.828;2023-06-26T07:39:54;26.50;1.00
20839;DHT22;10580;51.092;6.828;2023-06-26T07:42:20;26.90;1.00
20839;DHT22;10580;51.092;6.828;2023-06-26T07:44:45;26.50;99.90
20839;DHT22;10580;51.092;6.828;2023-06-26T07:47:11;26.50;99.90
20839;DHT22;10580;51.092;6.828;2023-06-26T07:49:37;26.60;99.90
20839;DHT22;10580;51.092;6.828;2023-06-26T07:52:04;26.50;99.90
20839;DHT22;10580;51.092;6.828;2023-06-26T07:54:30;27.00;1.00
20839;DHT22;10580;51.092;6.828;2023-06-26T07:57:04;26.60;99.90
20839;DHT22;10580;51.092;6.828;2023-06-26T07:59:33;26.30;99.90
20839;DHT22;10580;51.092;6.828;2023-06-26T08:01:59;26.50;1.00
20839;DHT22;10580;51.092;6.828;2023-06-26T08:04:27;25.60;99.90
20839;DHT22;10580;51.092;6.828;2023-06-26T08:06:54;25.00;99.90
20839;DHT22;10580;51.092;6.828;2023-06-26T08:09:22;25.30;99.90
20839;DHT22;10580;51.092;6.828;2023-06-26T08:11:48;25.00;99.90
20839;DHT22;10580;51.092;6.828;2023-06-26T08:14:13;24.80;99.90
20839;DHT22;10580;51.092;6.828;2023-06-26T08:16:40;24.90;99.90
20839;DHT22;10580;51.092;6.828;2023-06-26T08:19:06;25.90;1.00
20839;DHT22;10580;51.092;6.828;2023-06-26T08:21:31;25.80;99.90
20839;DHT22;10580;51.092;6.828;2023-06-26T08:23:57;25.90;99.90
20839;DHT22;10580;51.092;6.828;2023-06-26T08:26:23;25.40;99.90
20839;DHT22;10580;51.092;6.828;2023-06-26T08:28:49;25.10;99.90
20839;DHT22;10580;51.092;6.828;2023-06-26T08:31:15;24.90;99.90
20839;DHT22;10580;51.092;6.828;2023-06-26T08:33:40;24.80;99.90
20839;DHT22;10580;51.092;6.828;2023-06-26T08:36:06;25.30;99.90
20839;DHT22;10580;51.092;6.828;2023-06-26T08:38:32;25.70;99.90
20839;DHT22;10580;51.092;6.828;2023-06-26T08:40:58;25.60;99.90
20839;DHT22;10580;51.092;6.828;2023-06-26T08:43:24;25.70;99.90
20839;DHT22;10580;51.092;6.828;2023-06-26T08:45:50;25.30;99.90
20839;DHT22;10580;51.092;6.828;2023-06-26T08:48:17;24.50;99.90
20839;DHT22;10580;51.092;6.828;2023-06-26T08:50:43;24.40;99.90
20839;DHT22;10580;51.092;6.828;2023-06-26T08:53:29;24.40;99.90
20839;DHT22;10580;51.092;6.828;2023-06-26T08:55:59;24.50;99.90
20839;DHT22;10580;51.092;6.828;2023-06-26T08:58:25;24.70;99.90
20839;DHT22;10580;51.092;6.828;2023-06-26T09:00:51;25.40;99.90
20839;DHT22;10580;51.092;6.828;2023-06-26T09:03:17;25.60;99.90
20839;DHT22;10580;51.092;6.828;2023-06-26T09:05:43;25.30;99.90
20839;DHT22;10580;51.092;6.828;2023-06-26T09:08:08;25.30;99.90
20839;DHT22;10580;51.092;6.828;2023-06-26T09:10:34;25.20;99.90
20839;DHT22;10580;51.092;6.828;2023-06-26T09:13:00;25.50;99.90
20839;DHT22;10580;51.092;6.828;2023-06-26T09:15:37;24.90;99.90
20839;DHT22;10580;51.092;6.828;2023-06-26T09:18:04;24.80;99.90
20839;DHT22;10580;51.092;6.828;2023-06-26T09:20:34;25.30;99.90
20839;DHT22;10580;51.092;6.828;2023-06-26T09:23:01;25.30;99.90
20839;DHT22;10580;51.092;6.828;2023-06-26T09:25:28;25.70;99.90
20839;DHT22;10580;51.092;6.828;2023-06-26T09:27:55;25.90;99.90
20839;DHT22;10580;51.092;6.828;2023-06-26T09:30:27;26.30;99.90
20839;DHT22;10580;51.092;6.828;2023-06-26T09:33:15;26.60;99.90
20839;DHT22;10580;51.092;6.828;2023-06-26T09:35:41;27.10;1.00
20839;DHT22;10580;51.092;6.828;2023-06-26T09:38:07;27.30;1.00
20839;DHT22;10580;51.092;6.828;2023-06-26T09:40:33;27.30;99.90
20839;DHT22;10580;51.092;6.828;2023-06-26T09:43:07;26.50;99.90
20839;DHT22;10580;51.092;6.828;2023-06-26T09:45:34;26.30;99.90
20839;DHT22;10580;51.092;6.828;2023-06-26T09:48:06;26.10;99.90
20839;DHT22;10580;51.092;6.828;2023-06-26T09:50:48;26.10;99.90
20839;DHT22;10580;51.092;6.828;2023-06-26T09:53:15;25.70;99.90
20839;DHT22;10580;51.092;6.828;2023-06-26T09:55:41;26.30;99.90
20839;DHT22;10580;51.092;6.828;2023-06-26T09:58:12;26.70;99.90
20839;DHT22;10580;51.092;6.828;2023-06-26T10:00:44;26.50;99.90
20839;DHT22;10580;51.092;6.828;2023-06-26T10:03:10;27.00;99.90
20839;DHT22;10580;51.092;6.828;2023-06-26T10:05:38;27.10;99.90
20839;DHT22;10580;51.092;6.828;2023-06-26T10:08:11;27.40;99.90
20839;DHT22;10580;51.092;6.828;2023-06-26T10:10:40;27.50;99.90
20839;DHT22;10580;51.092;6.828;2023-06-26T10:13:38;27.40;99.90
20839;DHT22;10580;51.092;6.828;2023-06-26T10:16:07;27.70;99.90
20839;DHT22;10580;51.092;6.828;2023-06-26T10:18:36;27.30;99.90
20839;DHT22;10580;51.092;6.828;2023-06-26T10:21:05;27.30;99.90
20839;DHT22;10580;51.092;6.828;2023-06-26T10:23:31;27.60;99.90
20839;DHT22;10580;51.092;6.828;2023-06-26T10:25:59;27.90;99.90
20839;DHT22;10580;51.092;6.828;2023-06-26T10:28:28;28.00;99.90
20839;DHT22;10580;51.092;6.828;2023-06-26T10:31:00;27.80;99.90
20839;DHT22;10580;51.092;6.828;2023-06-26T10:33:27;27.90;99.90
20839;DHT22;10580;51.092;6.828;2023-06-26T10:35:53;27.50;99.90
20839;DHT22;10580;51.092;6.828;2023-06-26T10:38:18;27.70;99.90
20839;DHT22;10580;51.092;6.828;2023-06-26T10:40:48;27.10;99.90
20839;DHT22;10580;51.092;6.828;2023-06-26T10:43:14;26.40;99.90
20839;DHT22;10580;51.092;6.828;2023-06-26T10:45:55;26.20;99.90
20839;DHT22;10580;51.092;6.828;2023-06-26T10:48:21;26.30;99.90
20839;DHT22;10580;51.092;6.828;2023-06-26T10:50:48;25.90;99.90
20839;DHT22;10580;51.092;6.828;2023-06-26T10:53:24;26.10;99.90
20839;DHT22;10580;51.092;6.828;2023-06-26T10:55:59;26.80;99.90
20839;DHT22;10580;51.092;6.828;2023-06-26T10:58:40;27.50;99.90
20839;DHT22;10580;51.092;6.828;2023-06-26T11:03:48;26.80;99.90
20839;DHT22;10580;51.092;6.828;2023-06-26T11:06:19;27.40;99.90
20839;DHT22;10580;51.092;6.828;2023-06-26T11:08:50;27.80;99.90
20839;DHT22;10580;51.092;6.828;2023-06-26T11:11:18;28.30;99.90
20839;DHT22;10580;51.092;6.828;2023-06-26T11:13:45;28.10;99.90
20839;DHT22;10580;51.092;6.828;2023-06-26T11:16:12;28.50;99.90
20839;DHT22;10580;51.092;6.828;2023-06-26T11:18:38;28.20;99.90
20839;DHT22;10580;51.092;6.828;2023-06-26T11:21:08;28.40;99.90
20839;DHT22;10580;51.092;6.828;2023-06-26T11:23:36;28.30;99.90
20839;DHT22;10580;51.092;6.828;2023-06-26T11:26:15;28.80;99.90
20839;DHT22;10580;51.092;6.828;2023-06-26T11:28:49;28.20;99.90
20839;DHT22;10580;51.092;6.828;2023-06-26T11:33:50;26.90;99.90
20839;DHT22;10580;51.092;6.828;2023-06-26T11:36:15;27.10;99.90
20839;DHT22;10580;51.092;6.828;2023-06-26T11:38:41;27.50;99.90
20839;DHT22;10580;51.092;6.828;2023-06-26T11:41:07;28.00;99.90
20839;DHT22;10580;51.092;6.828;2023-06-26T11:43:36;28.20;99.90
20839;DHT22;10580;51.092;6.828;2023-06-26T11:46:02;28.60;99.90
20839;DHT22;10580;51.092;6.828;2023-06-26T11:48:28;28.40;99.90
20839;DHT22;10580;51.092;6.828;2023-06-26T11:50:57;27.80;99.90
20839;DHT22;10580;51.092;6.828;2023-06-26T11:53:22;28.40;99.90
20839;DHT22;10580;51.092;6.828;2023-06-26T11:55:48;28.70;99.90
20839;DHT22;10580;51.092;6.828;2023-06-26T11:58:14;28.00;99.90
20839;DHT22;10580;51.092;6.828;2023-06-26T12:00:42;27.20;99.90
20839;DHT22;10580;51.092;6.828;2023-06-26T12:03:11;26.60;99.90
20839;DHT22;10580;51.092;6.828;2023-06-26T12:05:37;26.70;99.90
20839;DHT22;10580;51.092;6.828;2023-06-26T12:08:03;26.90;99.90
20839;DHT22;10580;51.092;6.828;2023-06-26T12:10:32;27.10;99.90
20839;DHT22;10580;51.092;6.828;2023-06-26T12:12:58;27.00;99.90
20839;DHT22;10580;51.092;6.828;2023-06-26T12:15:25;27.40;99.90
20839;DHT22;10580;51.092;6.828;2023-06-26T12:17:51;27.70;99.90
20839;DHT22;10580;51.092;6.828;2023-06-26T12:20:21;27.40;99.90
20839;DHT22;10580;51.092;6.828;2023-06-26T12:22:48;27.00;99.90
20839;DHT22;10580;51.092;6.828;2023-06-26T12:25:14;27.00;99.90
20839;DHT22;10580;51.092;6.828;2023-06-26T12:27:40;27.30;99.90
20839;DHT22;10580;51.092;6.828;2023-06-26T12:30:06;26.60;99.90
20839;DHT22;10580;51.092;6.828;2023-06-26T12:32:32;26.50;99.90
20839;DHT22;10580;51.092;6.828;2023-06-26T12:35:00;26.10;99.90
20839;DHT22;10580;51.092;6.828;2023-06-26T12:37:26;26.10;99.90
20839;DHT22;10580;51.092;6.828;2023-06-26T12:39:57;26.00;99.90
20839;DHT22;10580;51.092;6.828;2023-06-26T12:42:25;26.00;99.90
20839;DHT22;10580;51.092;6.828;2023-06-26T12:44:54;25.70;99.90
20839;DHT22;10580;51.092;6.828;2023-06-26T12:47:32;25.40;99.90
20839;DHT22;10580;51.092;6.828;2023-06-26T12:49:58;25.30;99.90
20839;DHT22;10580;51.092;6.828;2023-06-26T12:52:29;25.30;99.90
20839;DHT22;10580;51.092;6.828;2023-06-26T12:54:57;25.60;99.90
20839;DHT22;10580;51.092;6.828;2023-06-26T12:57:22;26.00;99.90
20839;DHT22;10580;51.092;6.828;2023-06-26T12:59:49;26.10;99.90
20839;DHT22;10580;51.092;6.828;2023-06-26T13:02:14;26.40;99.90
20839;DHT22;10580;51.092;6.828;2023-06-26T13:04:41;26.70;99.90
20839;DHT22;10580;51.092;6.828;2023-06-26T13:07:07;26.60;99.90
20839;DHT22;10580;51.092;6.828;2023-06-26T13:09:33;26.50;99.90
20839;DHT22;10580;51.092;6.828;2023-06-26T13:12:01;26.10;99.90
20839;DHT22;10580;51.092;6.828;2023-06-26T13:14:27;26.10;99.90
20839;DHT22;10580;51.092;6.828;2023-06-26T13:16:53;26.40;99.90
20839;DHT22;10580;51.092;6.828;2023-06-26T13:19:18;26.40;99.90
20839;DHT22;10580;51.092;6.828;2023-06-26T13:21:44;26.10;99.90
20839;DHT22;10580;51.092;6.828;2023-06-26T13:24:10;25.90;99.90
20839;DHT22;10580;51.092;6.828;2023-06-26T13:26:36;25.80;99.90
20839;DHT22;10580;51.092;6.828;2023-06-26T13:29:02;26.00;99.90
20839;DHT22;10580;51.092;6.828;2023-06-26T13:31:28;26.40;99.90
20839;DHT22;10580;51.092;6.828;2023-06-26T13:33:57;26.10;99.90
20839;DHT22;10580;51.092;6.828;2023-06-26T13:36:23;26.30;99.90
20839;DHT22;10580;51.092;6.828;2023-06-26T13:38:50;26.40;99.90
20839;DHT22;10580;51.092;6.828;2023-06-26T13:41:24;26.40;99.90
20839;DHT22;10580;51.092;6.828;2023-06-26T13:43:50;26.10;99.90
20839;DHT22;10580;51.092;6.828;2023-06-26T13:46:16;25.70;99.90
20839;DHT22;10580;51.092;6.828;2023-06-26T13:48:43;26.00;99.90
20839;DHT22;10580;51.092;6.828;2023-06-26T13:51:08;26.40;99.90
20839;DHT22;10580;51.092;6.828;2023-06-26T13:53:34;26.70;99.90
20839;DHT22;10580;51.092;6.828;2023-06-26T13:55:59;26.90;99.90
20839;DHT22;10580;51.092;6.828;2023-06-26T13:58:25;27.00;99.90
20839;DHT22;10580;51.092;6.828;2023-06-26T14:00:52;27.10;99.90
20839;DHT22;10580;51.092;6.828;2023-06-26T14:03:19;27.00;99.90
20839;DHT22;10580;51.092;6.828;2023-06-26T14:05:44;26.90;99.90
20839;DHT22;10580;51.092;6.828;2023-06-26T14:08:10;26.70;99.90
20839;DHT22;10580;51.092;6.828;2023-06-26T14:10:36;26.60;99.90
20839;DHT22;10580;51.092;6.828;2023-06-26T14:13:02;26.20;99.90
20839;DHT22;10580;51.092;6.828;2023-06-26T14:15:29;25.80;99.90
20839;DHT22;10580;51.092;6.828;2023-06-26T14:17:55;25.80;99.90
20839;DHT22;10580;51.092;6.828;2023-06-26T14:20:22;25.90;99.90
20839;DHT22;10580;51.092;6.828;2023-06-26T14:22:48;26.30;99.90
20839;DHT22;10580;51.092;6.828;2023-06-26T14:25:14;26.50;99.90
20839;DHT22;10580;51.092;6.828;2023-06-26T14:27:40;26.60;99.90
20839;DHT22;10580;51.092;6.828;2023-06-26T14:30:07;26.30;99.90
20839;DHT22;10580;51.092;6.828;2023-06-26T14:32:34;26.10;99.90
20839;DHT22;10580;51.092;6.828;2023-06-26T14:35:03;26.10;99.90
20839;DHT22;10580;51.092;6.828;2023-06-26T14:37:30;26.20;99.90
20839;DHT22;10580;51.092;6.828;2023-06-26T14:39:56;26.30;99.90
20839;DHT22;10580;51.092;6.828;2023-06-26T14:42:25;26.10;99.90
20839;DHT22;10580;51.092;6.828;2023-06-26T14:44:56;26.00;99.90
20839;DHT22;10580;51.092;6.828;2023-06-26T14:47:21;25.90;99.90
20839;DHT22;10580;51.092;6.828;2023-06-26T14:49:47;26.10;99.90
20839;DHT22;10580;51.092;6.828;2023-06-26T14:52:19;26.40;99.90
20839;DHT22;10580;51.092;6.828;2023-06-26T14:54:44;26.50;99.90
20839;DHT22;10580;51.092;6.828;2023-06-26T14:57:13;25.90;99.90
20839;DHT22;10580;51.092;6.828;2023-06-26T14:59:41;25.80;99.90
20839;DHT22;10580;51.092;6.828;2023-06-26T15:02:07;25.60;99.90
20839;DHT22;10580;51.092;6.828;2023-06-26T15:04:32;25.30;99.90
20839;DHT22;10580;51.092;6.828;2023-06-26T15:07:01;25.20;99.90
20839;DHT22;10580;51.092;6.828;2023-06-26T15:09:27;25.30;99.90
20839;DHT22;10580;51.092;6.828;2023-06-26T15:11:52;25.20;99.90
20839;DHT22;10580;51.092;6.828;2023-06-26T15:14:18;25.00;99.90
20839;DHT22;10580;51.092;6.828;2023-06-26T15:16:43;24.90;99.90
20839;DHT22;10580;51.092;6.828;2023-06-26T15:19:09;24.70;99.90
20839;DHT22;10580;51.092;6.828;2023-06-26T15:21:35;24.70;99.90
20839;DHT22;10580;51.092;6.828;2023-06-26T15:24:00;24.80;99.90
20839;DHT22;10580;51.092;6.828;2023-06-26T15:26:26;24.80;99.90
20839;DHT22;10580;51.092;6.828;2023-06-26T15:28:52;24.70;99.90
20839;DHT22;10580;51.092;6.828;2023-06-26T15:31:27;24.70;99.90
20839;DHT22;10580;51.092;6.828;2023-06-26T15:33:53;24.50;99.90
20839;DHT22;10580;51.092;6.828;2023-06-26T15:36:18;24.60;99.90
20839;DHT22;10580;51.092;6.828;2023-06-26T15:38:44;24.60;99.90
20839;DHT22;10580;51.092;6.828;2023-06-26T15:41:12;24.60;99.90
20839;DHT22;10580;51.092;6.828;2023-06-26T15:43:38;24.70;99.90
20839;DHT22;10580;51.092;6.828;2023-06-26T15:46:04;24.70;99.90
20839;DHT22;10580;51.092;6.828;2023-06-26T15:48:31;24.60;99.90
20839;DHT22;10580;51.092;6.828;2023-06-26T15:50:57;24.70;99.90
20839;DHT22;10580;51.092;6.828;2023-06-26T15:53:37;24.70;99.90